Time;durP1;ratioP1;P1;durP2;ratioP2;P2;SDS_P1;SDS_P2;PMS_P1;PMS_P2;Temp;Humidity;BMP_temperature;BMP_pressure;BME280_temperature;BME280_humidity;BME280_pressure;Samples;Min_cycle;Max_cycle;Signal;HPM_P1;HPM_P2
2023/07/06 00:00:19;;;;;;;;;;;;;;;-140.72;100.00;52646.53;4992843;28;19945;-69
2023/07/06 00:02:44;;;;;;;;;;;;;;;-140.72;100.00;52695.25;4994015;28;20080;-68
2023/07/06 00:05:09;;;;;;;;;;;;;;;-140.72;100.00;52654.66;4975560;28;20351;-68
2023/07/06 00:07:35;;;;;;;;;;;;;;;-140.72;100.00;52701.31;4985332;28;20057;-68
2023/07/06 00:10:01;;;;;;;;;;;;;;;-140.72;100.00;52654.66;4993396;28;20312;-68
2023/07/06 00:12:29;;;;;;;;;;;;;;;-140.72;100.00;52652.63;4967786;28;19928;-67
2023/07/06 00:14:54;;;;;;;;;;;;;;;-140.72;100.00;52691.19;4991533;28;20005;-68
2023/07/06 00:17:21;;;;;;;;;;;;;;;-140.72;100.00;52670.88;4989292;28;20403;-69
2023/07/06 00:19:47;;;;;;;;;;;;;;;-140.72;100.00;52654.66;4988107;28;20005;-69
2023/07/06 00:22:12;;;;;;;;;;;;;;;-140.72;100.00;52652.63;4990911;28;20013;-68
2023/07/06 00:24:40;;;;;;;;;;;;;;;-140.72;100.00;52660.75;4975193;28;19921;-68
2023/07/06 00:27:06;;;;;;;;;;;;;;;-140.72;100.00;52640.44;4990130;28;19921;-69
2023/07/06 00:29:35;;;;;;;;;;;;;;;-140.72;100.00;52664.81;4971875;28;19922;-69
2023/07/06 00:32:15;;;;;;;;;;;;;;;-140.72;100.00;52658.72;4987949;28;19960;-69
2023/07/06 00:34:40;;;;;;;;;;;;;;;-140.72;100.00;52687.13;4983111;28;19922;-68
2023/07/06 00:37:05;;;;;;;;;;;;;;;-140.72;100.00;52687.13;4986924;28;21345;-68
2023/07/06 00:39:31;;;;;;;;;;;;;;;-140.72;100.00;52685.09;4987912;28;19929;-69
2023/07/06 00:41:56;;;;;;;;;;;;;;;-140.72;100.00;52683.06;4986460;28;19945;-69
2023/07/06 00:44:41;;;;;;;;;;;;;;;-140.72;100.00;52638.41;4984620;28;19926;-69
2023/07/06 00:47:08;;;;;;;;;;;;;;;-140.72;100.00;52654.66;4991897;28;19925;-68
2023/07/06 00:49:34;;;;;;;;;;;;;;;-140.72;100.00;52670.88;4971369;28;19929;-69
2023/07/06 00:52:00;;;;;;;;;;;;;;;-140.72;100.00;52685.09;4966021;28;19926;-69
2023/07/06 00:54:26;;;;;;;;;;;;;;;-140.72;100.00;52674.94;4991138;28;19922;-69
2023/07/06 00:56:52;;;;;;;;;;;;;;;-140.72;100.00;52685.09;4989103;28;20011;-69
2023/07/06 00:59:19;;;;;;;;;;;;;;;-140.72;100.00;52711.47;4990975;28;19969;-69
2023/07/06 01:01:46;;;;;;;;;;;;;;;-140.72;100.00;52689.16;4992076;28;19922;-68
2023/07/06 01:04:13;;;;;;;;;;;;;;;-140.72;100.00;52674.94;4969528;28;20384;-68
2023/07/06 01:06:42;;;;;;;;;;;;;;;-140.72;100.00;52674.94;4984953;28;20013;-68
2023/07/06 01:09:07;;;;;;;;;;;;;;;-140.72;100.00;52711.47;4985630;28;19922;-69
2023/07/06 01:11:35;;;;;;;;;;;;;;;-140.72;100.00;52666.84;4987564;28;19928;-69
2023/07/06 01:14:00;;;;;;;;;;;;;;;-140.72;100.00;52693.22;4989554;28;19922;-68
2023/07/06 01:16:36;;;;;;;;;;;;;;;-140.72;100.00;52689.16;4987950;28;20039;-69
2023/07/06 01:19:08;;;;;;;;;;;;;;;-140.72;100.00;52687.13;4986840;28;19922;-69
2023/07/06 01:21:45;;;;;;;;;;;;;;;-140.72;100.00;52693.22;4989160;28;19989;-68
2023/07/06 01:24:10;;;;;;;;;;;;;;;-140.72;100.00;52638.41;4989002;28;19929;-68
2023/07/06 01:26:44;;;;;;;;;;;;;;;-140.72;100.00;52670.88;4986838;28;20307;-68
2023/07/06 01:29:22;;;;;;;;;;;;;;;-140.72;100.00;52687.13;4990026;28;20087;-69
2023/07/06 01:31:52;;;;;;;;;;;;;;;-140.72;100.00;52666.84;4988716;28;20406;-68
2023/07/06 01:34:17;;;;;;;;;;;;;;;-140.72;100.00;52719.59;4988369;28;19922;-68
2023/07/06 01:37:02;;;;;;;;;;;;;;;-140.72;100.00;52689.16;4990357;28;19928;-69
2023/07/06 01:39:28;;;;;;;;;;;;;;;-140.72;100.00;52699.31;4987593;28;19922;-68
2023/07/06 01:42:20;;;;;;;;;;;;;;;-140.72;100.00;52683.06;4990708;28;20380;-69
2023/07/06 01:44:46;;;;;;;;;;;;;;;-140.72;100.00;52681.03;4987806;28;20399;-69
2023/07/06 01:47:14;;;;;;;;;;;;;;;-140.72;100.00;52715.53;4987636;28;20355;-68
2023/07/06 01:49:40;;;;;;;;;;;;;;;-140.72;100.00;52687.13;4991625;28;19926;-68
2023/07/06 01:52:13;;;;;;;;;;;;;;;-140.72;100.00;52717.56;4992707;28;19972;-68
2023/07/06 01:54:50;;;;;;;;;;;;;;;-140.72;100.00;52687.13;4992487;28;19957;-68
2023/07/06 01:57:25;;;;;;;;;;;;;;;-140.72;100.00;52711.47;4994287;28;19957;-68
2023/07/06 01:59:53;;;;;;;;;;;;;;;-140.72;100.00;52703.34;4989942;28;19929;-68
2023/07/06 02:02:19;;;;;;;;;;;;;;;-140.72;100.00;52715.53;4989775;28;19926;-68
2023/07/06 02:04:46;;;;;;;;;;;;;;;-140.72;100.00;52695.25;4991674;28;19929;-68
2023/07/06 02:07:16;;;;;;;;;;;;;;;-140.72;100.00;52743.94;4994982;28;20008;-68
2023/07/06 02:09:45;;;;;;;;;;;;;;;-140.72;100.00;52652.63;4994029;28;20296;-68
2023/07/06 02:12:12;;;;;;;;;;;;;;;-140.72;100.00;52719.59;4985795;28;20412;-68
2023/07/06 02:14:37;;;;;;;;;;;;;;;-140.72;100.00;52683.06;4970164;28;19922;-68
2023/07/06 02:17:03;;;;;;;;;;;;;;;-140.72;100.00;52715.53;4983627;28;19926;-68
2023/07/06 02:19:35;;;;;;;;;;;;;;;-140.72;100.00;52687.13;4994734;28;19933;-68
2023/07/06 02:22:03;;;;;;;;;;;;;;;-140.72;100.00;52705.38;4990417;28;19922;-68
2023/07/06 02:24:28;;;;;;;;;;;;;;;-140.72;100.00;52703.34;4990781;28;20288;-68
2023/07/06 02:26:54;;;;;;;;;;;;;;;-140.72;100.00;52658.72;4972866;28;19990;-68
2023/07/06 02:29:20;;;;;;;;;;;;;;;-140.72;100.00;52707.41;4990421;28;19921;-68
2023/07/06 02:31:46;;;;;;;;;;;;;;;-140.72;100.00;52723.66;4976574;28;19921;-68
2023/07/06 02:34:11;;;;;;;;;;;;;;;-140.72;100.00;52693.22;4973176;28;20383;-68
2023/07/06 02:36:37;;;;;;;;;;;;;;;-140.72;100.00;52685.09;4989242;28;20008;-68
2023/07/06 02:39:03;;;;;;;;;;;;;;;-140.72;100.00;52681.03;4987989;28;20348;-68
2023/07/06 02:41:28;;;;;;;;;;;;;;;-140.72;100.00;52699.31;4992139;28;19929;-68
2023/07/06 02:43:53;;;;;;;;;;;;;;;-140.72;100.00;52676.97;4991575;28;19934;-68
2023/07/06 02:46:20;;;;;;;;;;;;;;;-140.72;100.00;52705.38;4994190;28;19926;-68
2023/07/06 02:48:46;;;;;;;;;;;;;;;-140.72;100.00;52654.66;4991663;28;20016;-68
2023/07/06 02:51:11;;;;;;;;;;;;;;;-140.72;100.00;52693.22;4990863;28;20020;-68
2023/07/06 02:53:36;;;;;;;;;;;;;;;-140.72;100.00;52672.91;4988979;28;20379;-68
2023/07/06 02:56:03;;;;;;;;;;;;;;;-140.72;100.00;52662.78;4994337;28;19921;-68
2023/07/06 02:58:28;;;;;;;;;;;;;;;-140.72;100.00;52699.31;4987918;28;20033;-68
2023/07/06 03:00:55;;;;;;;;;;;;;;;-140.72;100.00;52679.00;4991485;28;19928;-68
2023/07/06 03:03:23;;;;;;;;;;;;;;;-140.72;100.00;52672.91;4988745;28;19922;-68
2023/07/06 03:05:49;;;;;;;;;;;;;;;-140.72;100.00;52666.84;4976097;28;19929;-68
2023/07/06 03:08:15;;;;;;;;;;;;;;;-140.72;100.00;52685.09;4990966;28;20019;-68
2023/07/06 03:10:42;;;;;;;;;;;;;;;-140.72;100.00;52662.78;4994072;28;19929;-68
2023/07/06 03:13:08;;;;;;;;;;;;;;;-140.72;100.00;52685.09;4989448;28;19918;-68
2023/07/06 03:15:33;;;;;;;;;;;;;;;-140.72;100.00;52695.25;4993442;28;20291;-68
2023/07/06 03:17:58;;;;;;;;;;;;;;;-140.72;100.00;52713.50;4994270;28;19968;-68
2023/07/06 03:20:23;;;;;;;;;;;;;;;-140.72;100.00;52672.91;4993233;28;19930;-68
2023/07/06 03:22:51;;;;;;;;;;;;;;;-140.72;100.00;52695.25;4983382;28;19936;-68
2023/07/06 03:25:18;;;;;;;;;;;;;;;-140.72;100.00;52670.88;4988863;28;19922;-68
2023/07/06 03:27:46;;;;;;;;;;;;;;;-140.72;100.00;52729.75;4993025;28;19926;-68
2023/07/06 03:30:11;;;;;;;;;;;;;;;-140.72;100.00;52676.97;4990190;28;19929;-68
2023/07/06 03:32:37;;;;;;;;;;;;;;;-140.72;100.00;52681.03;4993579;28;20315;-68
2023/07/06 03:35:04;;;;;;;;;;;;;;;-140.72;100.00;52683.06;4968537;28;19933;-69
2023/07/06 03:37:29;;;;;;;;;;;;;;;-140.72;100.00;52695.25;4993581;28;19930;-69
2023/07/06 03:39:55;;;;;;;;;;;;;;;-140.72;100.00;52683.06;4991586;28;19976;-69
2023/07/06 03:42:20;;;;;;;;;;;;;;;-140.72;100.00;52672.91;4986762;28;20288;-69
2023/07/06 03:44:46;;;;;;;;;;;;;;;-140.72;100.00;52642.47;4988450;28;20269;-69
2023/07/06 03:47:11;;;;;;;;;;;;;;;-140.72;100.00;52695.25;4984705;28;20340;-69
2023/07/06 03:49:36;;;;;;;;;;;;;;;-140.72;100.00;52713.50;4987541;28;20336;-68
2023/07/06 03:52:03;;;;;;;;;;;;;;;-140.72;100.00;52687.13;4972910;28;19926;-69
2023/07/06 03:54:28;;;;;;;;;;;;;;;-140.72;100.00;52729.75;4988141;28;19932;-68
2023/07/06 03:56:54;;;;;;;;;;;;;;;-140.72;100.00;52695.25;4991600;28;19930;-70
2023/07/06 03:59:22;;;;;;;;;;;;;;;-140.72;100.00;52705.38;4991962;28;20400;-69
2023/07/06 04:01:48;;;;;;;;;;;;;;;-140.72;100.00;52683.06;4991083;28;20000;-69
2023/07/06 04:04:15;;;;;;;;;;;;;;;-140.72;100.00;52674.94;4988408;28;19960;-72
2023/07/06 04:06:48;;;;;;;;;;;;;;;-140.72;100.00;52674.94;4988659;28;19918;-71
2023/07/06 04:12:08;;;;;;;;;;;;;;;-140.72;100.00;52666.84;4990118;28;19918;-70
2023/07/06 04:14:35;;;;;;;;;;;;;;;-140.72;100.00;52683.06;4975058;28;19944;-70
2023/07/06 04:17:01;;;;;;;;;;;;;;;-140.72;100.00;52658.72;4974794;28;19922;-70
2023/07/06 04:19:28;;;;;;;;;;;;;;;-140.72;100.00;52685.09;4991701;28;19940;-70
2023/07/06 04:21:53;;;;;;;;;;;;;;;-140.72;100.00;52664.81;4987979;28;19936;-70
2023/07/06 04:24:18;;;;;;;;;;;;;;;-140.72;100.00;52703.34;4992336;28;20020;-71
2023/07/06 04:26:47;;;;;;;;;;;;;;;-140.72;100.00;52670.88;4987562;28;19923;-71
2023/07/06 04:29:13;;;;;;;;;;;;;;;-140.72;100.00;52697.28;4988322;28;19965;-70
2023/07/06 04:31:39;;;;;;;;;;;;;;;-140.72;100.00;52701.31;4990158;28;19929;-72
2023/07/06 04:34:04;;;;;;;;;;;;;;;-140.72;100.00;52670.88;4972602;28;19929;-74
2023/07/06 04:36:31;;;;;;;;;;;;;;;-140.72;100.00;52707.41;4990714;28;19976;-73
2023/07/06 04:38:58;;;;;;;;;;;;;;;-140.72;100.00;52670.88;4983551;28;20054;-72
2023/07/06 04:41:25;;;;;;;;;;;;;;;-140.72;100.00;52699.31;4967116;28;20375;-72
2023/07/06 04:43:52;;;;;;;;;;;;;;;-140.72;100.00;52723.66;4991254;28;19969;-69
2023/07/06 04:46:17;;;;;;;;;;;;;;;-140.72;100.00;52685.09;4986152;28;19922;-68
2023/07/06 04:48:44;;;;;;;;;;;;;;;-140.72;100.00;52650.59;4986540;28;19947;-69
2023/07/06 04:51:11;;;;;;;;;;;;;;;-140.72;100.00;52713.50;4985237;28;19922;-68
2023/07/06 04:53:37;;;;;;;;;;;;;;;-140.72;100.00;52650.59;4991510;28;19953;-68
2023/07/06 04:56:03;;;;;;;;;;;;;;;-140.72;100.00;52691.19;4988037;28;19988;-70
2023/07/06 04:58:28;;;;;;;;;;;;;;;-140.72;100.00;52648.56;4987977;28;19926;-70
2023/07/06 05:00:54;;;;;;;;;;;;;;;-140.72;100.00;52654.66;4983737;28;20234;-68
2023/07/06 05:03:19;;;;;;;;;;;;;;;-140.72;100.00;52658.72;4993107;28;19925;-71
2023/07/06 05:05:45;;;;;;;;;;;;;;;-140.72;100.00;52670.88;4984646;28;19917;-69
2023/07/06 05:08:15;;;;;;;;;;;;;;;-140.72;100.00;52707.41;4981283;28;19922;-69
2023/07/06 05:10:42;;;;;;;;;;;;;;;-140.72;100.00;52650.59;4987864;28;20015;-69
2023/07/06 05:13:09;;;;;;;;;;;;;;;-140.72;100.00;52640.44;4988061;28;19926;-69
2023/07/06 05:15:36;;;;;;;;;;;;;;;-140.72;100.00;52614.06;4986687;28;19922;-68
2023/07/06 05:18:01;;;;;;;;;;;;;;;-140.72;100.00;52640.44;4966649;28;19940;-69
2023/07/06 05:20:28;;;;;;;;;;;;;;;-140.72;100.00;52664.81;4986354;28;19923;-69
2023/07/06 05:22:53;;;;;;;;;;;;;;;-140.72;100.00;52664.81;4991611;28;19926;-71
2023/07/06 05:25:19;;;;;;;;;;;;;;;-140.72;100.00;52693.22;4975024;28;19980;-69
2023/07/06 05:27:44;;;;;;;;;;;;;;;-140.72;100.00;52687.13;4989193;28;19932;-68
2023/07/06 05:30:10;;;;;;;;;;;;;;;-140.72;100.00;52666.84;4990618;28;19946;-68
2023/07/06 05:32:35;;;;;;;;;;;;;;;-140.72;100.00;52656.69;4993727;28;20372;-69
2023/07/06 05:35:01;;;;;;;;;;;;;;;-140.72;100.00;52658.72;4993648;28;19918;-68
2023/07/06 05:37:26;;;;;;;;;;;;;;;-140.72;100.00;52689.16;4989986;28;20001;-69
2023/07/06 05:39:53;;;;;;;;;;;;;;;-140.72;100.00;52652.63;4995948;28;20465;-69
2023/07/06 05:42:19;;;;;;;;;;;;;;;-140.72;100.00;52638.41;4992496;28;20256;-69
2023/07/06 05:44:44;;;;;;;;;;;;;;;-140.72;100.00;52648.56;4987848;28;20361;-70
2023/07/06 05:47:10;;;;;;;;;;;;;;;-140.72;100.00;52681.03;4991698;28;19977;-70
2023/07/06 05:49:36;;;;;;;;;;;;;;;-140.72;100.00;52654.66;4978575;28;19972;-72
2023/07/06 05:52:01;;;;;;;;;;;;;;;-140.72;100.00;52626.25;4992547;28;19925;-69
2023/07/06 05:54:34;;;;;;;;;;;;;;;-140.72;100.00;52626.25;4995366;28;19917;-71
2023/07/06 05:57:02;;;;;;;;;;;;;;;-140.72;100.00;52648.56;4987816;28;19929;-71
2023/07/06 05:59:29;;;;;;;;;;;;;;;-140.72;100.00;52658.72;4984680;28;19922;-71
2023/07/06 06:01:54;;;;;;;;;;;;;;;-140.72;100.00;52664.81;4995938;28;19922;-71
2023/07/06 06:04:20;;;;;;;;;;;;;;;-140.72;100.00;52622.19;4995553;28;19922;-70
2023/07/06 06:06:50;;;;;;;;;;;;;;;-140.72;100.00;52603.94;4995534;28;19922;-70
2023/07/06 06:09:15;;;;;;;;;;;;;;;-140.72;100.00;52618.13;4988895;28;20255;-72
2023/07/06 06:11:48;;;;;;;;;;;;;;;-140.72;100.00;52603.94;4999109;28;19929;-71
2023/07/06 06:14:14;;;;;;;;;;;;;;;-140.72;100.00;52605.94;4989321;28;19921;-72
2023/07/06 06:16:40;;;;;;;;;;;;;;;-140.72;100.00;52642.47;4989685;28;20417;-71
2023/07/06 06:19:06;;;;;;;;;;;;;;;-140.72;100.00;52605.94;4989843;28;19930;-70
2023/07/06 06:21:38;;;;;;;;;;;;;;;-140.72;100.00;52630.31;4994625;28;19922;-71
2023/07/06 06:24:08;;;;;;;;;;;;;;;-140.72;100.00;52610.00;4988862;28;19918;-72
2023/07/06 06:26:33;;;;;;;;;;;;;;;-140.72;100.00;52628.28;4974514;28;19922;-69
2023/07/06 06:28:59;;;;;;;;;;;;;;;-140.72;100.00;52569.44;4991556;28;20005;-69
2023/07/06 06:31:24;;;;;;;;;;;;;;;-140.72;100.00;52614.06;4995486;28;19972;-69
2023/07/06 06:33:49;;;;;;;;;;;;;;;-140.72;100.00;52573.50;4983597;28;20403;-70
2023/07/06 06:36:18;;;;;;;;;;;;;;;-140.72;100.00;52581.59;4988374;28;19937;-69
2023/07/06 06:38:43;;;;;;;;;;;;;;;-140.72;100.00;52652.63;4992029;28;19989;-69
2023/07/06 06:41:10;;;;;;;;;;;;;;;-140.72;100.00;52583.63;4991609;28;19955;-70
2023/07/06 06:43:37;;;;;;;;;;;;;;;-140.72;100.00;52591.75;4973931;28;19975;-69
2023/07/06 06:46:02;;;;;;;;;;;;;;;-140.72;100.00;52610.00;4984820;28;19995;-69
2023/07/06 06:48:28;;;;;;;;;;;;;;;-140.72;100.00;52618.13;4987932;28;19922;-70
2023/07/06 06:50:55;;;;;;;;;;;;;;;-140.72;100.00;52630.31;4979268;28;19929;-70
2023/07/06 06:53:21;;;;;;;;;;;;;;;-140.72;100.00;52565.38;4992003;28;20011;-69
2023/07/06 06:55:48;;;;;;;;;;;;;;;-140.72;100.00;52575.50;5004178;28;19918;-69
2023/07/06 06:58:15;;;;;;;;;;;;;;;-140.72;100.00;52618.13;4984600;28;19921;-70
2023/07/06 07:00:40;;;;;;;;;;;;;;;-140.72;100.00;52567.41;4995978;28;19917;-70
2023/07/06 07:03:06;;;;;;;;;;;;;;;-140.72;100.00;52567.41;4990789;28;19988;-69
2023/07/06 07:05:31;;;;;;;;;;;;;;;-140.72;100.00;52545.06;4986957;28;20260;-69
2023/07/06 07:07:56;;;;;;;;;;;;;;;-140.72;100.00;52585.66;4994951;28;19918;-69
2023/07/06 07:10:22;;;;;;;;;;;;;;;-140.72;100.00;52577.53;4976951;28;19918;-69
2023/07/06 07:12:47;;;;;;;;;;;;;;;-140.72;100.00;52563.34;4988216;28;19936;-69
2023/07/06 07:15:14;;;;;;;;;;;;;;;-140.72;100.00;52559.28;4990818;28;19922;-69
2023/07/06 07:17:39;;;;;;;;;;;;;;;-140.72;100.00;52561.31;4990206;28;20005;-69
2023/07/06 07:20:06;;;;;;;;;;;;;;;-140.72;100.00;52565.38;4976670;28;20424;-69
2023/07/06 07:22:31;;;;;;;;;;;;;;;-140.72;100.00;52545.06;4970038;28;19918;-69
2023/07/06 07:24:58;;;;;;;;;;;;;;;-140.72;100.00;52583.63;4976813;28;19925;-69
2023/07/06 07:27:25;;;;;;;;;;;;;;;-140.72;100.00;52551.16;4987817;28;19922;-70
2023/07/06 07:29:50;;;;;;;;;;;;;;;-140.72;100.00;52516.66;4994579;28;19949;-69
2023/07/06 07:32:15;;;;;;;;;;;;;;;-140.72;100.00;52486.22;4981417;28;19925;-69
2023/07/06 07:34:43;;;;;;;;;;;;;;;-140.72;100.00;52480.16;4984437;28;19918;-69
2023/07/06 07:37:14;;;;;;;;;;;;;;;-140.72;100.00;52504.50;4973945;28;19922;-69
2023/07/06 07:39:39;;;;;;;;;;;;;;;-140.72;100.00;52476.09;4985467;28;19983;-69
2023/07/06 07:42:05;;;;;;;;;;;;;;;-140.72;100.00;52482.16;4987801;28;19918;-69
2023/07/06 07:44:31;;;;;;;;;;;;;;;-140.72;100.00;52516.66;4986191;28;19918;-69
2023/07/06 07:46:58;;;;;;;;;;;;;;;-140.72;100.00;52524.78;4993742;28;19918;-69
2023/07/06 07:49:24;;;;;;;;;;;;;;;-140.72;100.00;52470.00;4993859;28;20284;-69
2023/07/06 07:51:50;;;;;;;;;;;;;;;-140.72;100.00;52480.16;4987350;28;19937;-69
2023/07/06 07:54:15;;;;;;;;;;;;;;;-140.72;100.00;52478.13;4982352;28;20021;-69
2023/07/06 07:56:42;;;;;;;;;;;;;;;-140.72;100.00;52516.66;4993597;28;19918;-69
2023/07/06 07:59:08;;;;;;;;;;;;;;;-140.72;100.00;52478.13;4993596;28;20364;-69
2023/07/06 08:01:33;;;;;;;;;;;;;;;-140.72;100.00;52478.13;4993530;28;19917;-69
2023/07/06 08:03:59;;;;;;;;;;;;;;;-140.72;100.00;52482.16;4993045;28;20026;-69
2023/07/06 08:06:24;;;;;;;;;;;;;;;-140.72;100.00;52518.69;4993544;28;20348;-69
2023/07/06 08:08:50;;;;;;;;;;;;;;;-140.72;100.00;52467.97;4992939;28;20380;-70
2023/07/06 08:11:22;;;;;;;;;;;;;;;-140.72;100.00;52457.81;4975482;28;19953;-70
2023/07/06 08:13:51;;;;;;;;;;;;;;;-140.72;100.00;52472.03;4992818;28;19953;-69
2023/07/06 08:16:17;;;;;;;;;;;;;;;-140.72;100.00;52467.97;4993008;28;20426;-69
2023/07/06 08:18:43;;;;;;;;;;;;;;;-140.72;100.00;52480.16;4993118;28;19926;-69
2023/07/06 08:21:08;;;;;;;;;;;;;;;-140.72;100.00;52488.25;4988904;28;20012;-69
2023/07/06 08:23:34;;;;;;;;;;;;;;;-140.72;100.00;52512.59;4993245;28;19980;-69
2023/07/06 08:25:59;;;;;;;;;;;;;;;-140.72;100.00;52474.06;4992654;28;20422;-69
2023/07/06 08:28:31;;;;;;;;;;;;;;;-140.72;100.00;52528.84;4975506;28;19917;-69
2023/07/06 08:31:01;;;;;;;;;;;;;;;-140.72;100.00;52528.84;4975128;28;19922;-69
2023/07/06 08:33:27;;;;;;;;;;;;;;;-140.72;100.00;52514.63;4996951;28;19918;-70
2023/07/06 08:35:52;;;;;;;;;;;;;;;-140.72;100.00;52559.28;4999115;28;20008;-69
2023/07/06 08:38:17;;;;;;;;;;;;;;;-140.72;100.00;52541.03;4980136;28;19964;-70
2023/07/06 08:40:47;;;;;;;;;;;;;;;-140.72;100.00;52541.03;4985045;28;19918;-69
2023/07/06 08:43:18;;;;;;;;;;;;;;;-140.72;100.00;52528.84;4981706;28;20005;-69
2023/07/06 08:45:45;;;;;;;;;;;;;;;-140.72;100.00;52551.16;4985752;28;19917;-69
2023/07/06 08:48:14;;;;;;;;;;;;;;;-140.72;100.00;52559.28;4985922;28;20386;-71
2023/07/06 08:50:42;;;;;;;;;;;;;;;-140.72;100.00;52587.69;4965858;28;20017;-69
2023/07/06 08:53:13;;;;;;;;;;;;;;;-140.72;100.00;52553.19;4980607;28;20025;-69
2023/07/06 08:55:38;;;;;;;;;;;;;;;-140.72;100.00;52581.59;4992502;28;19968;-69
2023/07/06 08:58:04;;;;;;;;;;;;;;;-140.72;100.00;52569.44;4993619;28;19918;-69
2023/07/06 09:00:31;;;;;;;;;;;;;;;-140.72;100.00;52539.00;4993712;28;19921;-69
2023/07/06 09:03:06;;;;;;;;;;;;;;;-140.72;100.00;52603.94;4989506;28;20272;-69
2023/07/06 09:05:34;;;;;;;;;;;;;;;-140.72;100.00;52638.41;4985634;28;19917;-69
2023/07/06 09:08:00;;;;;;;;;;;;;;;-140.72;100.00;52614.06;4980137;28;20307;-69
2023/07/06 09:10:27;;;;;;;;;;;;;;;-140.72;100.00;52616.09;4987758;28;19929;-69
2023/07/06 09:12:53;;;;;;;;;;;;;;;-140.72;100.00;52656.69;4979963;28;19918;-69
2023/07/06 09:15:24;;;;;;;;;;;;;;;-140.72;100.00;52636.38;4964255;28;19926;-69
2023/07/06 09:17:52;;;;;;;;;;;;;;;-140.72;100.00;52658.72;4995071;28;19921;-69
2023/07/06 09:20:19;;;;;;;;;;;;;;;-140.72;100.00;52640.44;5002713;28;19968;-69
2023/07/06 09:22:45;;;;;;;;;;;;;;;-140.72;100.00;52672.91;5004058;28;20388;-70
2023/07/06 09:25:19;;;;;;;;;;;;;;;-140.72;100.00;52660.75;4986956;28;19918;-70
2023/07/06 09:27:48;;;;;;;;;;;;;;;-140.72;100.00;52626.25;4966691;28;20013;-70
2023/07/06 09:30:36;;;;;;;;;;;;;;;-140.72;100.00;52597.84;4974584;28;20300;-70
2023/07/06 09:33:23;;;;;;;;;;;;;;;-140.72;100.00;52618.13;4984276;28;19922;-70
2023/07/06 09:35:52;;;;;;;;;;;;;;;-140.72;100.00;52581.59;4980547;28;19928;-69
2023/07/06 09:38:18;;;;;;;;;;;;;;;-140.72;100.00;52587.69;4992591;28;20336;-69
2023/07/06 09:40:43;;;;;;;;;;;;;;;-140.72;100.00;52626.25;4992644;28;19958;-69
2023/07/06 09:43:22;;;;;;;;;;;;;;;-140.72;100.00;52512.59;4992081;28;20291;-70
2023/07/06 09:45:49;;;;;;;;;;;;;;;-140.72;100.00;52549.13;4983012;28;20283;-69
2023/07/06 09:48:29;;;;;;;;;;;;;;;-140.72;100.00;52565.38;4981147;28;19960;-70
2023/07/06 09:51:01;;;;;;;;;;;;;;;-140.72;100.00;52541.03;4983946;28;19918;-70
2023/07/06 09:53:31;;;;;;;;;;;;;;;-140.72;100.00;52551.16;4986065;28;19949;-70
2023/07/06 09:55:57;;;;;;;;;;;;;;;-140.72;100.00;52565.38;4984995;28;19940;-70
2023/07/06 09:58:24;;;;;;;;;;;;;;;-140.72;100.00;52549.13;4992013;28;20028;-69
2023/07/06 10:00:53;;;;;;;;;;;;;;;-140.72;100.00;52516.66;4992177;28;19922;-69
2023/07/06 10:03:21;;;;;;;;;;;;;;;-140.72;100.00;52504.50;4962805;28;19917;-69
2023/07/06 10:05:55;;;;;;;;;;;;;;;-140.72;100.00;52504.50;4991743;28;19980;-69
2023/07/06 10:08:33;;;;;;;;;;;;;;;-140.72;100.00;52463.91;4994183;28;20352;-69
2023/07/06 10:11:09;;;;;;;;;;;;;;;-140.72;100.00;52500.44;4984578;28;19918;-69
2023/07/06 10:13:38;;;;;;;;;;;;;;;-140.72;100.00;52470.00;4994108;28;20412;-69
2023/07/06 10:16:12;;;;;;;;;;;;;;;-140.72;100.00;52526.81;4989124;28;20356;-69
2023/07/06 10:18:42;;;;;;;;;;;;;;;-140.72;100.00;52457.81;4989003;28;19922;-69
2023/07/06 10:21:46;;;;;;;;;;;;;;;-140.72;36.49;52415.22;4977659;28;19960;-69
2023/07/06 10:24:12;;;;;;;;;;;;;;;-140.72;0.00;52419.28;4922257;29;19965;-70
2023/07/06 10:26:43;;;;;;;;;;;;;;;-140.72;0.00;52370.56;4924387;29;19950;-69
2023/07/06 10:29:11;;;;;;;;;;;;;;;-140.72;0.00;52433.47;4956913;28;19922;-70
2023/07/06 10:31:51;;;;;;;;;;;;;;;-140.72;0.00;52342.16;4995983;28;19922;-70
2023/07/06 10:34:26;;;;;;;;;;;;;;;-140.72;0.00;52325.94;4988707;28;20025;-70
2023/07/06 10:36:51;;;;;;;;;;;;;;;-140.72;0.00;52261.00;4991483;28;19933;-69
2023/07/06 10:39:23;;;;;;;;;;;;;;;-140.72;0.00;52277.22;4993856;28;20012;-69
2023/07/06 10:41:58;;;;;;;;;;;;;;;-140.72;0.00;52279.25;4995538;28;20009;-69
2023/07/06 10:44:47;;;;;;;;;;;;;;;-140.72;0.00;52189.97;4986072;28;19928;-70
2023/07/06 10:47:28;;;;;;;;;;;;;;;-140.72;0.00;52202.16;4992217;28;19917;-70
2023/07/06 10:50:06;;;;;;;;;;;;;;;-140.72;0.00;52321.88;4987912;28;20372;-69
2023/07/06 10:52:44;;;;;;;;;;;;;;;-140.72;0.00;52390.84;4985925;28;19924;-69
2023/07/06 10:55:18;;;;;;;;;;;;;;;-140.72;0.00;52455.78;4992945;28;19976;-69
2023/07/06 10:57:49;;;;;;;;;;;;;;;-140.72;0.00;52362.44;4988123;28;20293;-69
2023/07/06 11:00:16;;;;;;;;;;;;;;;-140.72;0.00;52321.88;4995289;28;19988;-69
2023/07/06 11:02:43;;;;;;;;;;;;;;;-140.72;0.00;52258.97;4995732;28;19971;-69
2023/07/06 11:05:08;;;;;;;;;;;;;;;-140.72;0.00;52317.81;4994869;28;19918;-69
2023/07/06 11:07:41;;;;;;;;;;;;;;;-140.72;0.00;52350.28;4976118;28;19940;-70
2023/07/06 11:10:13;;;;;;;;;;;;;;;-140.72;0.00;52342.16;4993911;28;19957;-69
2023/07/06 11:12:58;;;;;;;;;;;;;;;-140.72;0.00;52317.81;4994629;28;19925;-70
2023/07/06 11:15:35;;;;;;;;;;;;;;;-140.72;0.00;52277.22;4993891;28;19917;-69
2023/07/06 11:18:10;;;;;;;;;;;;;;;-140.72;0.00;52224.47;4982746;28;19918;-69
2023/07/06 11:20:37;;;;;;;;;;;;;;;-140.72;0.00;52151.44;4980861;28;19925;-70
2023/07/06 11:23:04;;;;;;;;;;;;;;;-140.72;0.00;52147.38;4994494;28;19956;-69
2023/07/06 11:25:31;;;;;;;;;;;;;;;-140.72;0.00;52151.44;4963640;28;19926;-70
2023/07/06 11:28:02;;;;;;;;;;;;;;;-140.72;0.00;52281.28;4986312;28;20369;-70
2023/07/06 11:30:34;;;;;;;;;;;;;;;-140.72;0.00;52226.50;4990691;28;20016;-70
2023/07/06 11:33:18;;;;;;;;;;;;;;;-140.72;0.00;52175.78;4994084;28;19941;-69
2023/07/06 11:36:09;;;;;;;;;;;;;;;-140.72;0.00;52135.19;4988185;28;19918;-69
2023/07/06 11:38:55;;;;;;;;;;;;;;;-140.72;0.00;52127.09;4971038;28;19930;-69
2023/07/06 11:41:30;;;;;;;;;;;;;;;-140.72;0.00;52110.84;4987162;28;19921;-69
2023/07/06 11:44:03;;;;;;;;;;;;;;;-140.72;0.00;52102.75;4994075;28;19925;-69
2023/07/06 11:46:35;;;;;;;;;;;;;;;-140.72;0.00;52088.53;4993980;28;19918;-69
2023/07/06 11:49:06;;;;;;;;;;;;;;;-140.72;0.00;52155.50;4993594;28;20017;-69
2023/07/06 11:51:34;;;;;;;;;;;;;;;-140.72;0.00;52187.97;4992372;28;19957;-70
2023/07/06 11:54:01;;;;;;;;;;;;;;;-140.72;0.00;52131.16;4994129;28;20080;-70
2023/07/06 11:56:50;;;;;;;;;;;;;;;-140.72;0.00;52236.66;4993558;28;19957;-69
2023/07/06 11:59:36;;;;;;;;;;;;;;;-140.72;0.00;52289.41;4992601;28;19924;-69
2023/07/06 12:02:04;;;;;;;;;;;;;;;-140.72;0.00;52159.56;4995447;28;20323;-69
2023/07/06 12:04:29;;;;;;;;;;;;;;;-140.72;0.00;52173.75;4989178;28;19941;-69
2023/07/06 12:06:56;;;;;;;;;;;;;;;-140.72;0.00;52151.44;4985228;28;20009;-69
2023/07/06 12:09:23;;;;;;;;;;;;;;;-140.72;0.00;52102.75;4991608;28;20004;-69
2023/07/06 12:11:57;;;;;;;;;;;;;;;-140.72;0.00;52047.97;5003648;28;19918;-69
2023/07/06 12:14:22;;;;;;;;;;;;;;;-140.72;0.00;52153.47;4994371;28;19999;-69
2023/07/06 12:16:51;;;;;;;;;;;;;;;-140.72;0.00;52118.97;4993783;28;20012;-69
2023/07/06 12:19:19;;;;;;;;;;;;;;;-140.72;0.00;52082.44;4976169;28;19940;-71
2023/07/06 12:21:45;;;;;;;;;;;;;;;-140.72;0.00;52070.28;4983827;28;20004;-69
2023/07/06 12:24:14;;;;;;;;;;;;;;;-140.72;0.00;52011.44;4978811;28;19961;-69
2023/07/06 12:26:51;;;;;;;;;;;;;;;-140.72;0.00;52196.06;5003298;28;20042;-69
2023/07/06 12:29:18;;;;;;;;;;;;;;;-140.72;0.00;52104.75;4987978;28;19922;-68